sensor_id;sensor_type;location;lat;lon;timestamp;pressure;altitude;pressure_sealevel;temperature;humidity
65784;BME280;52532;53.358;-1.488;2022-07-23T00:02:59;100927.83;;;17.70;56.07
65784;BME280;52532;53.358;-1.488;2022-07-23T00:06:02;100924.49;;;18.61;53.19
65784;BME280;52532;53.358;-1.488;2022-07-23T00:09:05;100917.43;;;20.95;49.37
65784;BME280;52532;53.358;-1.488;2022-07-23T00:12:08;100910.11;;;19.05;54.09
65784;BME280;52532;53.358;-1.488;2022-07-23T00:15:11;100907.80;;;21.15;50.61
65784;BME280;52532;53.358;-1.488;2022-07-23T00:18:14;100911.95;;;19.45;53.58
65784;BME280;52532;53.358;-1.488;2022-07-23T00:21:16;100917.57;;;17.82;56.00
65784;BME280;52532;53.358;-1.488;2022-07-23T00:24:20;100918.46;;;18.70;53.46
65784;BME280;52532;53.358;-1.488;2022-07-23T00:27:23;100917.87;;;18.39;52.52
65784;BME280;52532;53.358;-1.488;2022-07-23T00:30:26;100917.54;;;18.24;54.13
65784;BME280;52532;53.358;-1.488;2022-07-23T00:33:31;100913.08;;;21.51;47.55
65784;BME280;52532;53.358;-1.488;2022-07-23T00:36:34;100918.73;;;17.41;56.57
65784;BME280;52532;53.358;-1.488;2022-07-23T00:39:37;100914.16;;;16.70;58.87
65784;BME280;52532;53.358;-1.488;2022-07-23T00:42:40;100912.23;;;16.41;59.81
65784;BME280;52532;53.358;-1.488;2022-07-23T00:45:43;100909.66;;;15.96;61.66
65784;BME280;52532;53.358;-1.488;2022-07-23T00:48:46;100904.26;;;17.79;57.70
65784;BME280;52532;53.358;-1.488;2022-07-23T00:51:50;100902.56;;;18.27;56.01
65784;BME280;52532;53.358;-1.488;2022-07-23T00:54:53;100890.22;;;16.41;59.72
65784;BME280;52532;53.358;-1.488;2022-07-23T00:57:57;100890.82;;;17.65;58.15
65784;BME280;52532;53.358;-1.488;2022-07-23T01:01:01;100887.37;;;18.43;56.24
65784;BME280;52532;53.358;-1.488;2022-07-23T01:04:04;100889.37;;;17.92;56.63
65784;BME280;52532;53.358;-1.488;2022-07-23T01:07:07;100879.83;;;19.17;54.51
65784;BME280;52532;53.358;-1.488;2022-07-23T01:10:10;100877.83;;;17.35;58.29
65784;BME280;52532;53.358;-1.488;2022-07-23T01:13:33;100877.12;;;18.96;55.27
65784;BME280;52532;53.358;-1.488;2022-07-23T01:16:36;100872.72;;;19.22;55.23
65784;BME280;52532;53.358;-1.488;2022-07-23T01:19:39;100875.68;;;19.70;53.46
65784;BME280;52532;53.358;-1.488;2022-07-23T01:22:42;100872.07;;;20.07;52.68
65784;BME280;52532;53.358;-1.488;2022-07-23T01:25:49;100871.76;;;18.93;54.36
65784;BME280;52532;53.358;-1.488;2022-07-23T01:28:54;100875.65;;;16.72;59.04
65784;BME280;52532;53.358;-1.488;2022-07-23T01:31:57;100870.69;;;18.73;55.61
65784;BME280;52532;53.358;-1.488;2022-07-23T01:35:00;100869.21;;;20.79;52.22
65784;BME280;52532;53.358;-1.488;2022-07-23T01:38:03;100871.30;;;21.22;50.94
65784;BME280;52532;53.358;-1.488;2022-07-23T01:41:05;100873.22;;;20.22;53.02
65784;BME280;52532;53.358;-1.488;2022-07-23T01:44:08;100872.48;;;17.11;59.28
65784;BME280;52532;53.358;-1.488;2022-07-23T01:47:12;100875.01;;;17.47;59.16
65784;BME280;52532;53.358;-1.488;2022-07-23T01:50:15;100872.07;;;16.87;60.97
65784;BME280;52532;53.358;-1.488;2022-07-23T01:53:18;100870.85;;;18.89;57.73
65784;BME280;52532;53.358;-1.488;2022-07-23T01:56:21;100868.29;;;18.86;57.57
65784;BME280;52532;53.358;-1.488;2022-07-23T01:59:24;100867.76;;;18.54;57.04
65784;BME280;52532;53.358;-1.488;2022-07-23T02:02:27;100871.79;;;16.04;63.26
65784;BME280;52532;53.358;-1.488;2022-07-23T02:05:30;100867.39;;;16.59;61.79
65784;BME280;52532;53.358;-1.488;2022-07-23T02:08:33;100862.78;;;16.15;63.72
65784;BME280;52532;53.358;-1.488;2022-07-23T02:11:37;100862.94;;;15.99;64.37
65784;BME280;52532;53.358;-1.488;2022-07-23T02:14:40;100865.32;;;17.87;61.35
65784;BME280;52532;53.358;-1.488;2022-07-23T02:17:42;100862.34;;;17.66;61.23
65784;BME280;52532;53.358;-1.488;2022-07-23T02:20:45;100853.56;;;19.31;58.14
65784;BME280;52532;53.358;-1.488;2022-07-23T02:23:48;100854.52;;;19.77;56.41
65784;BME280;52532;53.358;-1.488;2022-07-23T02:26:51;100850.08;;;17.03;62.35
65784;BME280;52532;53.358;-1.488;2022-07-23T02:29:54;100846.62;;;19.64;56.14
65784;BME280;52532;53.358;-1.488;2022-07-23T02:32:57;100847.23;;;16.92;60.58
65784;BME280;52532;53.358;-1.488;2022-07-23T02:36:00;100847.80;;;16.74;61.62
65784;BME280;52532;53.358;-1.488;2022-07-23T02:39:03;100855.81;;;17.60;60.13
65784;BME280;52532;53.358;-1.488;2022-07-23T02:42:06;100854.51;;;18.79;57.28
65784;BME280;52532;53.358;-1.488;2022-07-23T02:45:10;100853.80;;;20.00;53.82
65784;BME280;52532;53.358;-1.488;2022-07-23T02:48:13;100852.87;;;16.79;60.35
65784;BME280;52532;53.358;-1.488;2022-07-23T02:51:16;100857.76;;;16.46;62.63
65784;BME280;52532;53.358;-1.488;2022-07-23T02:54:20;100855.53;;;19.71;54.64
65784;BME280;52532;53.358;-1.488;2022-07-23T02:57:23;100851.61;;;18.30;55.65
65784;BME280;52532;53.358;-1.488;2022-07-23T03:00:26;100847.02;;;19.72;53.36
65784;BME280;52532;53.358;-1.488;2022-07-23T03:03:29;100845.58;;;19.52;54.78
65784;BME280;52532;53.358;-1.488;2022-07-23T03:06:32;100843.68;;;18.98;55.77
65784;BME280;52532;53.358;-1.488;2022-07-23T03:09:35;100841.84;;;18.27;56.63
65784;BME280;52532;53.358;-1.488;2022-07-23T03:12:38;100839.35;;;20.61;52.22
65784;BME280;52532;53.358;-1.488;2022-07-23T03:15:41;100847.69;;;17.33;58.49
65784;BME280;52532;53.358;-1.488;2022-07-23T03:18:44;100851.73;;;16.91;60.00
65784;BME280;52532;53.358;-1.488;2022-07-23T03:21:47;100856.79;;;17.41;58.57
65784;BME280;52532;53.358;-1.488;2022-07-23T03:24:50;100853.60;;;18.26;56.11
65784;BME280;52532;53.358;-1.488;2022-07-23T03:27:56;100856.55;;;17.01;59.67
65784;BME280;52532;53.358;-1.488;2022-07-23T03:30:59;100861.95;;;16.82;60.75
65784;BME280;52532;53.358;-1.488;2022-07-23T03:34:02;100856.21;;;16.78;60.26
65784;BME280;52532;53.358;-1.488;2022-07-23T03:37:05;100855.20;;;18.35;56.93
65784;BME280;52532;53.358;-1.488;2022-07-23T03:40:08;100845.42;;;20.29;53.25
65784;BME280;52532;53.358;-1.488;2022-07-23T03:43:11;100849.66;;;18.43;55.72
65784;BME280;52532;53.358;-1.488;2022-07-23T03:46:14;100849.02;;;18.26;56.61
65784;BME280;52532;53.358;-1.488;2022-07-23T03:49:17;100842.43;;;17.15;60.57
65784;BME280;52532;53.358;-1.488;2022-07-23T03:52:20;100843.36;;;18.45;55.64
65784;BME280;52532;53.358;-1.488;2022-07-23T03:55:23;100835.94;;;20.06;53.05
65784;BME280;52532;53.358;-1.488;2022-07-23T03:58:25;100843.64;;;17.55;57.72
65784;BME280;52532;53.358;-1.488;2022-07-23T04:01:28;100834.26;;;20.05;54.23
65784;BME280;52532;53.358;-1.488;2022-07-23T04:04:31;100832.63;;;18.57;56.12
65784;BME280;52532;53.358;-1.488;2022-07-23T04:07:34;100830.77;;;19.58;53.62
65784;BME280;52532;53.358;-1.488;2022-07-23T04:10:37;100831.77;;;19.95;53.68
65784;BME280;52532;53.358;-1.488;2022-07-23T04:13:40;100831.10;;;20.19;52.39
65784;BME280;52532;53.358;-1.488;2022-07-23T04:16:43;100829.45;;;20.50;52.38
65784;BME280;52532;53.358;-1.488;2022-07-23T04:19:46;100825.49;;;20.45;52.33
65784;BME280;52532;53.358;-1.488;2022-07-23T04:22:49;100831.08;;;15.11;64.82
65784;BME280;52532;53.358;-1.488;2022-07-23T04:25:51;100832.45;;;18.09;59.58
65784;BME280;52532;53.358;-1.488;2022-07-23T04:28:54;100839.87;;;18.92;55.83
65784;BME280;52532;53.358;-1.488;2022-07-23T04:31:57;100842.84;;;16.92;61.68
65784;BME280;52532;53.358;-1.488;2022-07-23T04:35:00;100845.85;;;18.20;58.56
65784;BME280;52532;53.358;-1.488;2022-07-23T04:38:03;100832.09;;;17.09;60.53
65784;BME280;52532;53.358;-1.488;2022-07-23T04:41:06;100828.49;;;18.39;57.45
65784;BME280;52532;53.358;-1.488;2022-07-23T04:44:09;100825.30;;;18.30;57.72
65784;BME280;52532;53.358;-1.488;2022-07-23T04:47:12;100818.12;;;18.97;56.10
65784;BME280;52532;53.358;-1.488;2022-07-23T04:50:15;100822.13;;;16.70;61.17
65784;BME280;52532;53.358;-1.488;2022-07-23T04:53:21;100818.97;;;17.03;62.58
65784;BME280;52532;53.358;-1.488;2022-07-23T04:56:23;100825.15;;;19.65;55.11
65784;BME280;52532;53.358;-1.488;2022-07-23T04:59:26;100830.51;;;16.72;61.41
65784;BME280;52532;53.358;-1.488;2022-07-23T05:02:29;100829.77;;;20.39;53.49
65784;BME280;52532;53.358;-1.488;2022-07-23T05:05:32;100829.83;;;18.84;56.37
65784;BME280;52532;53.358;-1.488;2022-07-23T05:08:35;100827.68;;;19.40;54.66
65784;BME280;52532;53.358;-1.488;2022-07-23T05:11:38;100831.47;;;18.90;55.65
65784;BME280;52532;53.358;-1.488;2022-07-23T05:14:41;100829.11;;;20.54;52.79
65784;BME280;52532;53.358;-1.488;2022-07-23T05:17:44;100825.10;;;20.07;52.73
65784;BME280;52532;53.358;-1.488;2022-07-23T05:20:47;100823.21;;;18.05;56.86
65784;BME280;52532;53.358;-1.488;2022-07-23T05:23:50;100822.34;;;18.17;58.12
65784;BME280;52532;53.358;-1.488;2022-07-23T05:26:53;100828.03;;;17.02;60.61
65784;BME280;52532;53.358;-1.488;2022-07-23T05:29:56;100828.65;;;20.06;54.02
65784;BME280;52532;53.358;-1.488;2022-07-23T05:32:59;100828.45;;;20.01;53.42
65784;BME280;52532;53.358;-1.488;2022-07-23T05:36:03;100830.22;;;21.26;51.22
65784;BME280;52532;53.358;-1.488;2022-07-23T05:39:11;100834.60;;;21.44;51.61
65784;BME280;52532;53.358;-1.488;2022-07-23T05:42:14;100834.11;;;20.19;54.19
65784;BME280;52532;53.358;-1.488;2022-07-23T05:45:17;100827.74;;;18.53;58.42
65784;BME280;52532;53.358;-1.488;2022-07-23T05:48:21;100831.13;;;20.78;54.00
65784;BME280;52532;53.358;-1.488;2022-07-23T05:51:25;100835.09;;;16.83;60.82
65784;BME280;52532;53.358;-1.488;2022-07-23T05:54:28;100839.07;;;15.59;66.31
65784;BME280;52532;53.358;-1.488;2022-07-23T05:57:31;100834.47;;;18.84;58.27
65784;BME280;52532;53.358;-1.488;2022-07-23T06:00:35;100830.65;;;20.71;54.58
65784;BME280;52532;53.358;-1.488;2022-07-23T06:03:38;100829.90;;;20.31;55.30
65784;BME280;52532;53.358;-1.488;2022-07-23T06:06:41;100825.56;;;19.12;58.03
65784;BME280;52532;53.358;-1.488;2022-07-23T06:09:43;100823.85;;;20.91;53.42
65784;BME280;52532;53.358;-1.488;2022-07-23T06:12:46;100813.75;;;19.08;56.50
65784;BME280;52532;53.358;-1.488;2022-07-23T06:15:49;100819.76;;;18.02;59.61
65784;BME280;52532;53.358;-1.488;2022-07-23T06:18:52;100824.68;;;16.69;63.52
65784;BME280;52532;53.358;-1.488;2022-07-23T06:21:55;100827.00;;;20.61;54.28
65784;BME280;52532;53.358;-1.488;2022-07-23T06:24:58;100823.27;;;21.05;53.20
65784;BME280;52532;53.358;-1.488;2022-07-23T06:28:01;100821.40;;;17.75;61.39
65784;BME280;52532;53.358;-1.488;2022-07-23T06:31:04;100813.59;;;18.66;58.40
65784;BME280;52532;53.358;-1.488;2022-07-23T06:34:07;100817.29;;;17.68;62.97
65784;BME280;52532;53.358;-1.488;2022-07-23T06:37:09;100820.97;;;18.23;61.00
65784;BME280;52532;53.358;-1.488;2022-07-23T06:40:12;100819.69;;;19.72;57.34
65784;BME280;52532;53.358;-1.488;2022-07-23T06:43:15;100819.54;;;19.55;57.80
65784;BME280;52532;53.358;-1.488;2022-07-23T06:46:18;100822.52;;;18.67;58.83
65784;BME280;52532;53.358;-1.488;2022-07-23T06:49:21;100827.60;;;18.50;59.62
65784;BME280;52532;53.358;-1.488;2022-07-23T06:52:24;100825.97;;;20.15;55.44
65784;BME280;52532;53.358;-1.488;2022-07-23T06:55:28;100823.41;;;16.83;63.28
65784;BME280;52532;53.358;-1.488;2022-07-23T06:58:31;100819.61;;;19.62;58.50
65784;BME280;52532;53.358;-1.488;2022-07-23T07:01:33;100826.60;;;19.77;57.22
65784;BME280;52532;53.358;-1.488;2022-07-23T07:04:37;100826.93;;;17.20;64.27
65784;BME280;52532;53.358;-1.488;2022-07-23T07:07:40;100821.35;;;18.96;57.98
65784;BME280;52532;53.358;-1.488;2022-07-23T07:10:43;100824.61;;;19.44;57.70
65784;BME280;52532;53.358;-1.488;2022-07-23T07:13:46;100825.03;;;19.91;56.37
65784;BME280;52532;53.358;-1.488;2022-07-23T07:19:30;100822.38;;;21.04;53.96
65784;BME280;52532;53.358;-1.488;2022-07-23T07:22:32;100819.34;;;20.89;53.37
65784;BME280;52532;53.358;-1.488;2022-07-23T07:25:35;100816.70;;;21.67;53.25
65784;BME280;52532;53.358;-1.488;2022-07-23T07:28:38;100820.63;;;22.46;49.00
65784;BME280;52532;53.358;-1.488;2022-07-23T07:31:41;100821.79;;;22.34;45.90
65784;BME280;52532;53.358;-1.488;2022-07-23T07:34:44;100821.11;;;16.44;59.20
65784;BME280;52532;53.358;-1.488;2022-07-23T07:37:47;100826.26;;;15.48;65.22
65784;BME280;52532;53.358;-1.488;2022-07-23T07:40:50;100821.08;;;16.68;63.96
65784;BME280;52532;53.358;-1.488;2022-07-23T07:43:53;100816.51;;;18.70;58.80
65784;BME280;52532;53.358;-1.488;2022-07-23T07:46:56;100817.45;;;21.46;54.20
65784;BME280;52532;53.358;-1.488;2022-07-23T07:49:58;100811.01;;;20.83;55.12
65784;BME280;52532;53.358;-1.488;2022-07-23T07:53:03;100809.97;;;19.13;58.25
65784;BME280;52532;53.358;-1.488;2022-07-23T07:56:06;100813.75;;;20.50;55.68
65784;BME280;52532;53.358;-1.488;2022-07-23T07:59:09;100813.64;;;22.25;52.80
65784;BME280;52532;53.358;-1.488;2022-07-23T08:02:13;100805.81;;;21.87;51.71
65784;BME280;52532;53.358;-1.488;2022-07-23T08:05:19;100799.41;;;21.44;52.51
65784;BME280;52532;53.358;-1.488;2022-07-23T08:08:23;100807.35;;;21.00;53.70
65784;BME280;52532;53.358;-1.488;2022-07-23T08:11:26;100806.33;;;21.33;53.57
65784;BME280;52532;53.358;-1.488;2022-07-23T08:14:29;100811.47;;;21.34;52.32
65784;BME280;52532;53.358;-1.488;2022-07-23T08:17:32;100813.09;;;22.95;49.77
65784;BME280;52532;53.358;-1.488;2022-07-23T08:20:35;100809.27;;;21.73;51.75
65784;BME280;52532;53.358;-1.488;2022-07-23T08:23:38;100801.26;;;18.86;57.46
65784;BME280;52532;53.358;-1.488;2022-07-23T08:26:41;100799.81;;;18.91;57.78
65784;BME280;52532;53.358;-1.488;2022-07-23T08:29:44;100800.95;;;19.10;58.18
65784;BME280;52532;53.358;-1.488;2022-07-23T08:32:51;100804.09;;;22.22;51.37
65784;BME280;52532;53.358;-1.488;2022-07-23T08:35:55;100802.30;;;18.60;58.67
65784;BME280;52532;53.358;-1.488;2022-07-23T08:38:58;100801.20;;;21.96;52.04
65784;BME280;52532;53.358;-1.488;2022-07-23T08:42:01;100808.81;;;22.25;51.66
65784;BME280;52532;53.358;-1.488;2022-07-23T08:45:07;100800.32;;;20.37;54.69
65784;BME280;52532;53.358;-1.488;2022-07-23T08:48:13;100793.29;;;21.98;51.68
65784;BME280;52532;53.358;-1.488;2022-07-23T08:51:18;100797.62;;;20.96;53.72
65784;BME280;52532;53.358;-1.488;2022-07-23T08:57:19;100786.58;;;22.17;51.86
65784;BME280;52532;53.358;-1.488;2022-07-23T09:00:22;100790.63;;;20.94;54.83
65784;BME280;52532;53.358;-1.488;2022-07-23T09:03:27;100791.06;;;19.06;61.33
65784;BME280;52532;53.358;-1.488;2022-07-23T09:06:31;100796.41;;;19.96;59.88
65784;BME280;52532;53.358;-1.488;2022-07-23T09:09:34;100800.88;;;19.99;57.31
65784;BME280;52532;53.358;-1.488;2022-07-23T09:12:37;100802.33;;;20.58;57.18
65784;BME280;52532;53.358;-1.488;2022-07-23T09:15:48;100802.45;;;19.17;58.04
65784;BME280;52532;53.358;-1.488;2022-07-23T09:18:53;100800.85;;;17.32;61.84
65784;BME280;52532;53.358;-1.488;2022-07-23T09:22:16;100791.04;;;21.91;52.76
65784;BME280;52532;53.358;-1.488;2022-07-23T09:25:19;100797.16;;;23.47;49.69
65784;BME280;52532;53.358;-1.488;2022-07-23T09:28:22;100802.06;;;22.02;51.08
65784;BME280;52532;53.358;-1.488;2022-07-23T09:31:34;100796.57;;;19.89;56.14
65784;BME280;52532;53.358;-1.488;2022-07-23T09:34:49;100795.15;;;22.07;50.78
65784;BME280;52532;53.358;-1.488;2022-07-23T09:38:01;100788.46;;;20.99;52.39
65784;BME280;52532;53.358;-1.488;2022-07-23T09:41:06;100789.26;;;20.08;53.91
65784;BME280;52532;53.358;-1.488;2022-07-23T09:44:13;100794.79;;;21.96;49.92
65784;BME280;52532;53.358;-1.488;2022-07-23T09:47:17;100789.93;;;21.94;48.91
65784;BME280;52532;53.358;-1.488;2022-07-23T09:50:20;100789.04;;;20.44;49.70
65784;BME280;52532;53.358;-1.488;2022-07-23T09:53:24;100794.23;;;22.17;50.49
65784;BME280;52532;53.358;-1.488;2022-07-23T09:56:28;100793.98;;;21.48;49.66
65784;BME280;52532;53.358;-1.488;2022-07-23T09:59:32;100799.70;;;22.39;46.87
65784;BME280;52532;53.358;-1.488;2022-07-23T10:02:37;100798.91;;;22.48;48.26
65784;BME280;52532;53.358;-1.488;2022-07-23T10:05:40;100800.15;;;22.84;46.64
65784;BME280;52532;53.358;-1.488;2022-07-23T10:08:47;100792.93;;;22.46;46.99
65784;BME280;52532;53.358;-1.488;2022-07-23T10:11:50;100783.90;;;19.93;52.85
65784;BME280;52532;53.358;-1.488;2022-07-23T10:14:56;100782.95;;;20.91;51.64
65784;BME280;52532;53.358;-1.488;2022-07-23T10:17:59;100777.98;;;20.45;51.41
65784;BME280;52532;53.358;-1.488;2022-07-23T10:21:07;100776.06;;;21.02;51.36
65784;BME280;52532;53.358;-1.488;2022-07-23T10:24:18;100784.25;;;21.26;51.97
65784;BME280;52532;53.358;-1.488;2022-07-23T10:27:37;100785.70;;;19.83;51.73
65784;BME280;52532;53.358;-1.488;2022-07-23T10:30:49;100787.69;;;21.14;49.26
65784;BME280;52532;53.358;-1.488;2022-07-23T10:34:07;100786.65;;;22.99;48.20
65784;BME280;52532;53.358;-1.488;2022-07-23T10:37:17;100782.92;;;20.49;51.34
65784;BME280;52532;53.358;-1.488;2022-07-23T10:40:24;100789.27;;;22.94;47.64
65784;BME280;52532;53.358;-1.488;2022-07-23T10:43:29;100782.14;;;21.02;50.51
65784;BME280;52532;53.358;-1.488;2022-07-23T10:46:32;100782.00;;;22.50;48.36
65784;BME280;52532;53.358;-1.488;2022-07-23T10:49:39;100782.20;;;20.49;50.72
65784;BME280;52532;53.358;-1.488;2022-07-23T10:53:08;100780.14;;;21.45;49.85
65784;BME280;52532;53.358;-1.488;2022-07-23T10:56:14;100777.25;;;23.23;44.30
65784;BME280;52532;53.358;-1.488;2022-07-23T10:59:17;100775.08;;;22.19;46.37
65784;BME280;52532;53.358;-1.488;2022-07-23T11:02:22;100775.99;;;20.92;48.31
65784;BME280;52532;53.358;-1.488;2022-07-23T11:05:27;100773.34;;;21.41;49.28
65784;BME280;52532;53.358;-1.488;2022-07-23T11:08:41;100764.65;;;20.69;50.96
65784;BME280;52532;53.358;-1.488;2022-07-23T11:11:46;100764.38;;;22.36;46.87
65784;BME280;52532;53.358;-1.488;2022-07-23T11:15:07;100762.84;;;22.15;48.84
65784;BME280;52532;53.358;-1.488;2022-07-23T11:18:11;100757.39;;;20.92;49.12
65784;BME280;52532;53.358;-1.488;2022-07-23T11:21:49;100757.13;;;21.55;46.06
65784;BME280;52532;53.358;-1.488;2022-07-23T11:24:54;100757.61;;;23.25;46.50
65784;BME280;52532;53.358;-1.488;2022-07-23T11:28:09;100764.00;;;19.94;51.84
65784;BME280;52532;53.358;-1.488;2022-07-23T11:31:17;100763.21;;;21.05;47.77
65784;BME280;52532;53.358;-1.488;2022-07-23T11:34:30;100762.09;;;22.87;44.24
65784;BME280;52532;53.358;-1.488;2022-07-23T11:37:36;100759.47;;;21.91;45.87
65784;BME280;52532;53.358;-1.488;2022-07-23T11:40:40;100758.88;;;22.51;46.08
65784;BME280;52532;53.358;-1.488;2022-07-23T11:43:43;100759.76;;;21.76;46.52
65784;BME280;52532;53.358;-1.488;2022-07-23T11:46:55;100755.67;;;23.53;44.69
65784;BME280;52532;53.358;-1.488;2022-07-23T11:49:59;100759.86;;;23.47;43.83
65784;BME280;52532;53.358;-1.488;2022-07-23T11:53:03;100764.73;;;22.48;45.21
65784;BME280;52532;53.358;-1.488;2022-07-23T11:56:08;100761.34;;;23.16;46.40
65784;BME280;52532;53.358;-1.488;2022-07-23T11:59:13;100766.31;;;22.98;43.95
65784;BME280;52532;53.358;-1.488;2022-07-23T12:02:15;100772.62;;;22.34;45.50
65784;BME280;52532;53.358;-1.488;2022-07-23T12:05:20;100766.81;;;22.67;47.01
65784;BME280;52532;53.358;-1.488;2022-07-23T12:08:23;100761.93;;;23.00;45.02
65784;BME280;52532;53.358;-1.488;2022-07-23T12:11:26;100760.95;;;20.56;50.66
65784;BME280;52532;53.358;-1.488;2022-07-23T12:14:29;100766.91;;;21.03;48.96
65784;BME280;52532;53.358;-1.488;2022-07-23T12:17:34;100771.15;;;21.79;46.55
65784;BME280;52532;53.358;-1.488;2022-07-23T12:20:39;100769.93;;;20.46;48.69
65784;BME280;52532;53.358;-1.488;2022-07-23T12:23:48;100770.81;;;19.37;51.20
65784;BME280;52532;53.358;-1.488;2022-07-23T12:27:08;100770.73;;;19.88;51.85
65784;BME280;52532;53.358;-1.488;2022-07-23T12:30:22;100776.06;;;21.62;47.99
65784;BME280;52532;53.358;-1.488;2022-07-23T12:33:27;100777.25;;;21.91;47.30
65784;BME280;52532;53.358;-1.488;2022-07-23T12:36:37;100773.09;;;21.24;48.75
65784;BME280;52532;53.358;-1.488;2022-07-23T12:39:41;100776.27;;;21.56;47.65
65784;BME280;52532;53.358;-1.488;2022-07-23T12:42:46;100773.98;;;21.84;47.75
65784;BME280;52532;53.358;-1.488;2022-07-23T12:45:50;100766.36;;;20.18;49.65
65784;BME280;52532;53.358;-1.488;2022-07-23T12:48:54;100758.81;;;22.50;46.12
65784;BME280;52532;53.358;-1.488;2022-07-23T12:51:58;100745.38;;;19.17;52.01
65784;BME280;52532;53.358;-1.488;2022-07-23T12:55:01;100746.55;;;20.88;48.43
65784;BME280;52532;53.358;-1.488;2022-07-23T12:58:07;100742.47;;;22.74;45.01
65784;BME280;52532;53.358;-1.488;2022-07-23T13:01:22;100744.88;;;23.95;42.50
65784;BME280;52532;53.358;-1.488;2022-07-23T13:04:27;100740.37;;;24.12;42.39
65784;BME280;52532;53.358;-1.488;2022-07-23T13:07:29;100732.16;;;20.97;48.40
65784;BME280;52532;53.358;-1.488;2022-07-23T13:10:32;100726.33;;;21.24;48.65
65784;BME280;52532;53.358;-1.488;2022-07-23T13:13:36;100720.68;;;22.14;47.99
65784;BME280;52532;53.358;-1.488;2022-07-23T13:16:40;100716.87;;;21.70;49.10
65784;BME280;52532;53.358;-1.488;2022-07-23T13:19:43;100716.49;;;21.17;49.45
65784;BME280;52532;53.358;-1.488;2022-07-23T13:22:45;100717.99;;;21.72;48.43
65784;BME280;52532;53.358;-1.488;2022-07-23T13:25:49;100720.75;;;21.98;47.58
65784;BME280;52532;53.358;-1.488;2022-07-23T13:28:54;100718.24;;;21.72;49.78
65784;BME280;52532;53.358;-1.488;2022-07-23T13:31:57;100710.91;;;20.89;51.30
65784;BME280;52532;53.358;-1.488;2022-07-23T13:35:00;100710.98;;;18.51;57.88
65784;BME280;52532;53.358;-1.488;2022-07-23T13:38:03;100701.15;;;20.96;54.23
65784;BME280;52532;53.358;-1.488;2022-07-23T13:41:07;100697.72;;;22.18;51.53
65784;BME280;52532;53.358;-1.488;2022-07-23T13:44:10;100695.20;;;22.47;50.08
65784;BME280;52532;53.358;-1.488;2022-07-23T13:47:13;100695.07;;;22.93;47.55
65784;BME280;52532;53.358;-1.488;2022-07-23T13:50:16;100695.93;;;22.08;49.64
65784;BME280;52532;53.358;-1.488;2022-07-23T13:53:21;100704.15;;;21.81;50.47
65784;BME280;52532;53.358;-1.488;2022-07-23T13:56:24;100698.53;;;21.73;50.32
65784;BME280;52532;53.358;-1.488;2022-07-23T13:59:26;100687.09;;;20.62;53.76
65784;BME280;52532;53.358;-1.488;2022-07-23T14:02:29;100676.36;;;21.81;52.28
65784;BME280;52532;53.358;-1.488;2022-07-23T14:05:32;100686.19;;;22.27;51.60
65784;BME280;52532;53.358;-1.488;2022-07-23T14:08:35;100681.61;;;23.06;49.67
65784;BME280;52532;53.358;-1.488;2022-07-23T14:11:39;100683.27;;;20.89;53.79
65784;BME280;52532;53.358;-1.488;2022-07-23T14:14:42;100686.51;;;23.11;51.26
65784;BME280;52532;53.358;-1.488;2022-07-23T14:17:45;100687.15;;;21.35;53.98
65784;BME280;52532;53.358;-1.488;2022-07-23T14:20:48;100687.35;;;21.19;52.71
65784;BME280;52532;53.358;-1.488;2022-07-23T14:23:52;100687.31;;;21.70;50.30
65784;BME280;52532;53.358;-1.488;2022-07-23T14:26:55;100680.34;;;20.75;53.45
65784;BME280;52532;53.358;-1.488;2022-07-23T14:29:59;100685.67;;;22.33;51.76
65784;BME280;52532;53.358;-1.488;2022-07-23T14:33:03;100672.99;;;22.51;50.94
65784;BME280;52532;53.358;-1.488;2022-07-23T14:36:07;100667.70;;;22.43;50.68
65784;BME280;52532;53.358;-1.488;2022-07-23T14:39:10;100666.06;;;23.23;48.15
65784;BME280;52532;53.358;-1.488;2022-07-23T14:42:14;100661.63;;;22.80;49.96
65784;BME280;52532;53.358;-1.488;2022-07-23T14:45:17;100658.75;;;23.15;48.31
65784;BME280;52532;53.358;-1.488;2022-07-23T14:48:19;100658.61;;;22.51;49.29
65784;BME280;52532;53.358;-1.488;2022-07-23T14:51:22;100662.53;;;22.71;48.73
65784;BME280;52532;53.358;-1.488;2022-07-23T14:54:27;100658.48;;;23.73;47.07
65784;BME280;52532;53.358;-1.488;2022-07-23T14:57:30;100650.77;;;21.51;50.59
65784;BME280;52532;53.358;-1.488;2022-07-23T15:00:33;100643.48;;;22.70;50.22
65784;BME280;52532;53.358;-1.488;2022-07-23T15:03:36;100635.02;;;22.99;49.63
65784;BME280;52532;53.358;-1.488;2022-07-23T15:06:39;100631.76;;;21.96;52.23
65784;BME280;52532;53.358;-1.488;2022-07-23T15:09:42;100631.90;;;22.33;51.39
65784;BME280;52532;53.358;-1.488;2022-07-23T15:12:45;100636.12;;;21.74;53.74
65784;BME280;52532;53.358;-1.488;2022-07-23T15:15:48;100629.59;;;22.67;50.84
65784;BME280;52532;53.358;-1.488;2022-07-23T15:18:51;100635.53;;;23.14;50.74
65784;BME280;52532;53.358;-1.488;2022-07-23T15:21:55;100632.81;;;21.81;54.01
65784;BME280;52532;53.358;-1.488;2022-07-23T15:24:58;100633.06;;;20.59;55.30
65784;BME280;52532;53.358;-1.488;2022-07-23T15:28:01;100633.04;;;20.81;56.41
65784;BME280;52532;53.358;-1.488;2022-07-23T15:31:05;100628.22;;;22.35;51.96
65784;BME280;52532;53.358;-1.488;2022-07-23T15:34:08;100617.64;;;22.69;51.55
65784;BME280;52532;53.358;-1.488;2022-07-23T15:37:11;100613.07;;;22.57;52.96
65784;BME280;52532;53.358;-1.488;2022-07-23T15:40:14;100612.83;;;20.75;55.56
65784;BME280;52532;53.358;-1.488;2022-07-23T15:43:17;100597.38;;;22.59;52.48
65784;BME280;52532;53.358;-1.488;2022-07-23T15:46:20;100600.43;;;22.09;55.27
65784;BME280;52532;53.358;-1.488;2022-07-23T15:49:24;100585.78;;;21.24;56.69
65784;BME280;52532;53.358;-1.488;2022-07-23T15:52:27;100582.79;;;21.70;54.38
65784;BME280;52532;53.358;-1.488;2022-07-23T15:55:30;100576.61;;;22.70;51.43
65784;BME280;52532;53.358;-1.488;2022-07-23T15:58:33;100583.29;;;22.65;50.97